Blue Mountain, Colorado
Current Conditions -  °F | °C
As of 10:53 PM on Monday 20 Oct 2014 (Local Time) from KVEL Reporting Station
Broken Clouds Broken Clouds  
Wind Chill: 51°   Ceiling: 8000
Heat Index: 51°   Visibility: 10mi
Dew Point: 38°   Wind: 6mph
Humidity: 61%   Direction: 300°WNW
Pressure: 30.06"   Gusts: NA
Location:  40.362°N, 108.818°W
Report Text: KVEL 210453Z AUTO 30005KT 10SM BKN080 11/03 A3006 RMK AO2 SLP144 T01060033
Loading
Personal Weather Stations






























Interactive Weather Map
Tropical Storm Tracking
New forecast layout! Learn more

10-Day Weather Forecast

Advertisements
Track Severe Weather on mobile